createdAt,value
2019-04-20T00:01:32.302Z,11.43
2019-04-20T00:06:42.944Z,11.97
2019-04-20T00:11:53.467Z,10.55
2019-04-20T00:16:52.673Z,10.80
2019-04-20T00:22:07.032Z,13.00
2019-04-20T00:27:31.349Z,11.90
2019-04-20T00:32:34.257Z,10.28
2019-04-20T00:37:25.430Z,10.45
2019-04-20T00:42:39.166Z,10.82
2019-04-20T00:47:48.935Z,13.62
2019-04-20T00:52:56.478Z,13.75
2019-04-20T00:57:55.374Z,13.27
2019-04-20T01:03:19.676Z,17.35
2019-04-20T01:08:23.242Z,13.43
2019-04-20T01:13:30.242Z,12.88
2019-04-20T01:18:36.891Z,15.23
2019-04-20T01:23:50.789Z,15.55
2019-04-20T01:29:03.945Z,14.90
2019-04-20T01:34:03.076Z,15.08
2019-04-20T01:39:16.314Z,16.82
2019-04-20T01:44:09.757Z,14.38
2019-04-20T01:49:22.085Z,16.30
2019-04-20T01:54:42.302Z,19.17
2019-04-20T01:59:52.110Z,15.60
2019-04-20T02:04:54.992Z,16.85
2019-04-20T02:10:03.631Z,17.62
2019-04-20T02:15:13.027Z,17.00
2019-04-20T02:20:35.971Z,17.42
2019-04-20T02:25:20.679Z,15.73
2019-04-20T02:46:48.953Z,17.13
2019-04-20T03:01:55.335Z,21.43
2019-04-20T03:06:58.939Z,17.30
2019-04-20T03:12:28.870Z,16.07
2019-04-20T03:17:23.429Z,15.85
2019-04-20T03:22:33.718Z,18.77
2019-04-20T03:27:30.865Z,16.35
2019-04-20T03:33:02.168Z,16.97
2019-04-20T03:37:52.465Z,18.57
2019-04-20T03:42:39.906Z,17.27
2019-04-20T03:47:57.368Z,16.70
2019-04-20T03:53:19.268Z,15.93
2019-04-20T03:58:28.505Z,16.37
2019-04-20T04:08:38.100Z,17.83
2019-04-20T04:13:39.668Z,16.43
2019-04-20T04:18:49.184Z,17.83
2019-04-20T04:24:08.487Z,16.23
2019-04-20T04:29:28.787Z,19.80
2019-04-20T04:34:31.044Z,20.50
2019-04-20T04:39:35.349Z,18.23
2019-04-20T04:44:35.461Z,17.63
2019-04-20T04:49:34.139Z,16.70
2019-04-20T04:54:45.310Z,18.20
2019-04-20T04:59:42.440Z,15.30
2019-04-20T05:05:17.732Z,16.60
2019-04-20T05:10:07.453Z,17.13
2019-04-20T05:15:22.712Z,16.10
2019-04-20T05:20:47.281Z,18.40
2019-04-20T05:26:08.266Z,17.10
2019-04-20T05:30:56.986Z,16.00
2019-04-20T05:36:18.627Z,15.18
2019-04-20T05:41:21.861Z,16.70
2019-04-20T05:46:32.098Z,15.63
2019-04-20T05:51:41.068Z,16.17
2019-04-20T05:56:47.773Z,15.88
2019-04-20T06:01:58.882Z,19.32
2019-04-20T06:07:03.428Z,15.50
2019-04-20T06:17:27.077Z,16.12
2019-04-20T06:22:45.657Z,16.80
2019-04-20T06:27:48.526Z,16.65
2019-04-20T06:33:50.249Z,16.70
2019-04-20T06:38:48.263Z,16.00
2019-04-20T06:43:40.545Z,15.38
2019-04-20T06:48:52.257Z,15.20
2019-04-20T06:53:57.064Z,15.75
2019-04-20T06:59:21.523Z,15.88
2019-04-20T07:04:38.833Z,17.45
2019-04-20T07:09:42.114Z,21.35
2019-04-20T07:14:27.249Z,23.55
2019-04-20T07:19:50.507Z,22.95
2019-04-20T07:30:07.851Z,14.05
2019-04-20T07:35:14.482Z,14.65
2019-04-20T07:40:20.397Z,14.50
2019-04-20T07:45:30.796Z,13.98
2019-04-20T07:50:31.838Z,14.28
2019-04-20T08:01:05.978Z,15.50
2019-04-20T08:06:14.466Z,14.95
2019-04-20T08:11:36.662Z,14.38
2019-04-20T08:17:09.674Z,15.25
2019-04-20T08:21:47.532Z,22.20
2019-04-20T08:26:41.344Z,15.75
2019-04-20T08:32:18.889Z,14.30
2019-04-20T08:37:20.807Z,13.68
2019-04-20T08:42:40.491Z,15.08
2019-04-20T08:57:37.907Z,12.90
2019-04-20T09:02:48.879Z,11.70
2019-04-20T09:08:04.823Z,13.40
2019-04-20T09:13:13.832Z,12.90
2019-04-20T09:18:28.352Z,12.63
2019-04-20T09:23:43.691Z,12.73
2019-04-20T09:28:59.255Z,12.43
2019-04-20T09:34:14.439Z,11.30
2019-04-20T09:39:22.540Z,12.33
2019-04-20T09:44:18.182Z,12.65
2019-04-20T09:49:37.738Z,14.00
2019-04-20T09:54:48.151Z,13.75
2019-04-20T09:59:57.541Z,14.70
2019-04-20T10:04:44.302Z,12.75
2019-04-20T10:09:50.347Z,12.53
2019-04-20T10:15:02.119Z,14.85
2019-04-20T10:20:10.849Z,13.20
2019-04-20T10:25:10.798Z,15.43
2019-04-20T10:30:16.660Z,15.30
2019-04-20T10:35:23.278Z,13.70
2019-04-20T10:40:41.484Z,13.93
2019-04-20T10:45:37.000Z,12.80
2019-04-20T10:50:43.102Z,12.13
2019-04-20T10:55:49.518Z,11.97
2019-04-20T11:00:55.738Z,11.90
2019-04-20T11:06:02.706Z,11.63
2019-04-20T11:11:14.854Z,14.95
2019-04-20T11:16:15.081Z,12.07
2019-04-20T11:21:20.067Z,13.50
2019-04-20T11:26:26.341Z,13.90
2019-04-20T11:31:37.341Z,14.85
2019-04-20T11:36:39.308Z,12.28
2019-04-20T11:41:45.781Z,14.07
2019-04-20T11:46:50.841Z,11.95
2019-04-20T11:51:57.248Z,12.73
2019-04-20T11:57:03.713Z,13.30
2019-04-20T12:02:40.095Z,12.55
2019-04-20T12:08:01.144Z,14.45
2019-04-20T12:13:10.197Z,14.65
2019-04-20T12:18:17.804Z,12.23
2019-04-20T12:23:24.515Z,13.35
2019-04-20T12:28:33.698Z,14.87
2019-04-20T12:33:46.510Z,12.58
2019-04-20T12:38:54.987Z,12.73
2019-04-20T12:44:01.743Z,15.40
2019-04-20T12:49:17.978Z,13.75
2019-04-20T12:54:29.096Z,12.18
2019-04-20T12:59:42.294Z,12.18
2019-04-20T13:04:49.140Z,13.43
2019-04-20T13:09:54.839Z,11.25
2019-04-20T13:15:29.105Z,13.40
2019-04-20T13:20:36.007Z,12.53
2019-04-20T13:25:44.930Z,13.50
2019-04-20T13:30:57.865Z,11.28
2019-04-20T13:36:08.108Z,13.53
2019-04-20T13:41:13.856Z,11.05
2019-04-20T13:46:25.276Z,9.58
2019-04-20T13:51:41.060Z,8.60
2019-04-20T13:56:50.043Z,12.05
2019-04-20T14:02:12.985Z,9.25
2019-04-20T14:07:22.041Z,10.10
2019-04-20T14:12:38.588Z,9.08
2019-04-20T14:17:44.674Z,8.25
2019-04-20T14:22:56.854Z,7.28
2019-04-20T14:28:11.224Z,7.40
2019-04-20T14:33:20.958Z,8.15
2019-04-20T14:38:28.421Z,6.55
2019-04-20T14:43:35.254Z,6.20
2019-04-20T14:48:54.487Z,7.62
2019-04-20T14:54:13.813Z,6.72
2019-04-20T14:59:27.659Z,7.17
2019-04-20T15:04:34.618Z,7.70
2019-04-20T15:09:40.707Z,8.60
2019-04-20T15:14:50.409Z,8.73
2019-04-20T16:00:08.748Z,11.03
2019-04-20T16:05:37.563Z,10.20
2019-04-20T16:10:43.346Z,11.75
2019-04-20T16:15:49.740Z,12.15
2019-04-20T16:21:03.540Z,11.80
2019-04-20T16:26:21.811Z,13.75
2019-04-20T16:31:28.816Z,9.20
2019-04-20T16:36:34.697Z,10.35
2019-04-20T16:41:40.302Z,18.35
2019-04-20T16:46:46.008Z,9.85
2019-04-20T16:51:52.578Z,12.37
2019-04-20T16:57:00.613Z,10.45
2019-04-20T17:02:06.612Z,14.10
2019-04-20T17:07:21.300Z,9.70
2019-04-20T17:12:27.957Z,12.85
2019-04-20T17:17:33.597Z,10.08
2019-04-20T17:22:38.709Z,12.10
2019-04-20T17:28:08.962Z,12.68
2019-04-20T17:33:16.363Z,14.30
2019-04-20T17:38:22.684Z,12.40
2019-04-20T17:43:37.354Z,9.50
2019-04-20T17:48:45.206Z,13.45
2019-04-20T17:54:05.295Z,13.25
2019-04-20T17:59:08.153Z,10.95
2019-04-20T18:04:49.377Z,10.65
2019-04-20T18:09:47.492Z,12.55
2019-04-20T18:14:45.893Z,12.85
2019-04-20T18:19:47.023Z,11.50
2019-04-20T18:25:12.411Z,12.47
2019-04-20T18:30:15.495Z,9.43
2019-04-20T18:35:14.020Z,11.38
2019-04-20T18:40:29.229Z,10.82
2019-04-20T18:45:39.896Z,11.12
2019-04-20T18:50:40.028Z,9.70
2019-04-20T18:55:46.812Z,10.95
2019-04-20T19:00:51.580Z,9.88
2019-04-20T19:05:55.825Z,10.38
2019-04-20T19:11:06.497Z,9.30
2019-04-20T19:16:29.962Z,11.45
2019-04-20T19:21:26.890Z,10.15
2019-04-20T19:26:32.449Z,10.43
2019-04-20T19:31:57.315Z,11.53
2019-04-20T19:36:59.083Z,13.32
2019-04-20T19:42:07.105Z,9.88
2019-04-20T19:47:24.918Z,11.80
2019-04-20T19:52:36.501Z,13.68
2019-04-20T19:57:32.226Z,9.60
2019-04-20T20:02:21.416Z,13.68
2019-04-20T20:07:35.397Z,11.08
2019-04-20T20:12:35.568Z,10.20
2019-04-20T20:18:00.345Z,13.08
2019-04-20T20:22:50.525Z,11.83
2019-04-20T20:28:03.496Z,14.23
2019-04-20T20:33:19.008Z,12.80
2019-04-20T20:38:20.515Z,12.30
2019-04-20T20:43:33.351Z,13.38
2019-04-20T20:48:38.722Z,14.95
2019-04-20T20:53:42.870Z,11.20
2019-04-20T20:58:49.118Z,16.50
2019-04-20T21:03:48.881Z,13.40
2019-04-20T21:08:54.246Z,11.15
2019-04-20T21:13:59.518Z,14.43
2019-04-20T21:19:21.479Z,13.35
2019-04-20T21:24:28.764Z,11.08
2019-04-20T21:29:40.858Z,10.40
2019-04-20T21:34:50.385Z,11.25
2019-04-20T21:39:54.174Z,12.88
2019-04-20T21:45:05.634Z,14.25
2019-04-20T21:50:20.584Z,14.43
2019-04-20T21:55:10.252Z,12.88
2019-04-20T22:00:36.370Z,12.73
2019-04-20T22:05:40.270Z,14.28
2019-04-20T22:10:47.121Z,13.68
2019-04-20T22:15:59.740Z,11.93
2019-04-20T22:21:10.947Z,14.18
2019-04-20T22:26:18.735Z,16.62
2019-04-20T22:31:15.856Z,15.80
2019-04-20T22:36:26.062Z,12.55
2019-04-20T22:41:28.622Z,15.30
2019-04-20T22:46:37.109Z,12.75
2019-04-20T22:51:52.010Z,15.13
2019-04-20T22:57:02.322Z,13.32
2019-04-20T23:02:02.083Z,12.78
2019-04-20T23:07:06.454Z,13.13
2019-04-20T23:12:17.844Z,15.43
2019-04-20T23:17:26.918Z,14.78
2019-04-20T23:22:35.956Z,14.15
2019-04-20T23:27:38.329Z,14.50
2019-04-20T23:32:44.116Z,17.85
2019-04-20T23:37:50.716Z,17.02
2019-04-20T23:43:03.368Z,15.68
2019-04-20T23:48:16.228Z,14.87
2019-04-20T23:53:37.613Z,15.45
2019-04-20T23:58:33.056Z,16.27
